Wildwood, Pennsylvania
Current Conditions -  °F | °C
As of 8:55 PM on Saturday 25 Oct 2014 (Local Time) from KBTP Reporting Station
Scattered Clouds Scattered Clouds  
Wind Chill: 59°   Ceiling: Unl
Heat Index: 59°   Visibility: 10mi
Dew Point: 50°   Wind: 9mph
Humidity: 72%   Direction: 240°WSW
Pressure: 29.75"   Gusts: NA
Location:  40.59°N, 79.97°W
Report Text: KBTP 260055Z AUTO 24008KT 10SM SCT060 SCT070 15/10 A2975 RMK AO1
Loading
Personal Weather Stations






























Interactive Weather Map
Tropical Storm Tracking
New forecast layout! Learn more

10-Day Weather Forecast

Advertisements
Track Severe Weather on mobile